createdAt,value
2024-05-09T00:01:54.864Z,6.20
2024-05-09T00:04:24.419Z,5.30
2024-05-09T00:06:53.860Z,5.00
2024-05-09T00:09:23.844Z,6.00
2024-05-09T00:11:53.165Z,6.00
2024-05-09T00:14:22.522Z,7.30
2024-05-09T00:16:51.758Z,6.30
2024-05-09T00:19:21.212Z,6.40
2024-05-09T00:21:50.479Z,6.20
2024-05-09T00:24:20.204Z,6.30
2024-05-09T00:26:49.696Z,6.40
2024-05-09T00:29:18.596Z,5.90
2024-05-09T00:31:47.724Z,6.90
2024-05-09T00:34:16.706Z,5.20
2024-05-09T00:36:45.970Z,4.90
2024-05-09T00:39:15.782Z,6.10
2024-05-09T00:41:45.418Z,5.80
2024-05-09T00:44:14.208Z,6.70
2024-05-09T00:46:43.631Z,6.60
2024-05-09T00:49:13.638Z,7.40
2024-05-09T00:51:43.636Z,6.20
2024-05-09T00:54:12.718Z,5.40
2024-05-09T00:56:42.218Z,5.70
2024-05-09T00:59:10.792Z,6.20
2024-05-09T01:01:40.850Z,4.90
2024-05-09T01:04:09.936Z,6.00
2024-05-09T01:06:38.379Z,7.60
2024-05-09T01:09:06.663Z,5.20
2024-05-09T01:11:39.208Z,6.40
2024-05-09T01:14:07.379Z,6.00
2024-05-09T01:16:35.393Z,5.40
2024-05-09T01:19:04.988Z,5.80
2024-05-09T01:21:32.861Z,7.00
2024-05-09T01:24:01.024Z,7.50
2024-05-09T01:26:29.048Z,5.50
2024-05-09T01:28:57.238Z,6.20
2024-05-09T01:31:25.243Z,6.30
2024-05-09T01:33:53.436Z,6.10
2024-05-09T01:36:21.699Z,6.20
2024-05-09T01:38:49.665Z,6.70
2024-05-09T01:41:17.799Z,6.10
2024-05-09T01:43:46.355Z,7.90
2024-05-09T01:46:15.929Z,7.40
2024-05-09T01:48:44.043Z,7.80
2024-05-09T01:51:13.204Z,7.10
2024-05-09T01:53:41.309Z,6.80
2024-05-09T01:56:10.010Z,7.10
2024-05-09T01:58:38.854Z,6.90
2024-05-09T02:01:07.090Z,5.70
2024-05-09T02:03:35.215Z,7.00
2024-05-09T02:06:03.942Z,6.10
2024-05-09T02:08:32.238Z,5.70
2024-05-09T02:11:00.950Z,5.10
2024-05-09T02:13:28.947Z,7.30
2024-05-09T02:15:57.106Z,5.50
2024-05-09T02:18:25.072Z,5.80
2024-05-09T02:20:53.530Z,6.40
2024-05-09T02:23:21.546Z,5.90
2024-05-09T02:25:49.603Z,9.40
2024-05-09T02:28:17.955Z,7.20
2024-05-09T02:30:46.137Z,7.30
2024-05-09T02:33:14.680Z,6.00
2024-05-09T02:35:44.248Z,7.10
2024-05-09T02:38:13.504Z,5.50
2024-05-09T02:40:42.019Z,7.30
2024-05-09T02:43:12.698Z,7.40
2024-05-09T02:45:41.703Z,7.60
2024-05-09T02:48:12.437Z,7.50
2024-05-09T02:50:42.027Z,8.50
2024-05-09T02:53:14.384Z,8.50
2024-05-09T02:55:43.427Z,7.70
2024-05-09T02:58:12.289Z,6.90
2024-05-09T03:00:42.410Z,8.50
2024-05-09T03:03:14.200Z,6.70
2024-05-09T03:05:46.454Z,7.70
2024-05-09T03:08:14.931Z,8.20
2024-05-09T03:10:43.417Z,7.60
2024-05-09T03:13:14.958Z,6.20
2024-05-09T03:15:45.029Z,7.60
2024-05-09T03:18:13.746Z,7.50
2024-05-09T03:20:43.990Z,8.40
2024-05-09T03:23:12.903Z,7.10
2024-05-09T03:25:41.072Z,7.60
2024-05-09T03:28:08.952Z,6.20
2024-05-09T03:30:41.823Z,6.40
2024-05-09T03:33:15.554Z,6.60
2024-05-09T03:35:44.537Z,7.60
2024-05-09T03:38:12.810Z,7.60
2024-05-09T03:40:49.923Z,6.90
2024-05-09T03:43:20.023Z,8.90
2024-05-09T03:45:50.729Z,7.20
2024-05-09T03:48:18.795Z,8.00
2024-05-09T03:50:47.386Z,8.80
2024-05-09T03:53:15.560Z,7.40
2024-05-09T03:55:43.910Z,7.90
2024-05-09T03:58:14.272Z,7.70
2024-05-09T04:00:43.334Z,7.90
2024-05-09T04:03:13.061Z,6.90
2024-05-09T04:05:44.440Z,9.00
2024-05-09T04:08:15.520Z,9.50
2024-05-09T04:10:45.901Z,9.80
2024-05-09T04:13:13.872Z,8.50
2024-05-09T04:15:41.831Z,10.90
2024-05-09T04:18:10.176Z,8.90
2024-05-09T04:20:40.728Z,17.40
2024-05-09T04:23:14.313Z,7.70
2024-05-09T04:25:45.047Z,7.00
2024-05-09T04:28:14.455Z,8.60
2024-05-09T04:30:43.430Z,9.80
2024-05-09T04:33:13.778Z,10.10
2024-05-09T04:35:43.754Z,8.00
2024-05-09T04:38:13.983Z,10.30
2024-05-09T04:40:42.887Z,9.30
2024-05-09T04:43:19.194Z,9.50
2024-05-09T04:45:48.303Z,9.20
2024-05-09T04:48:18.137Z,7.30
2024-05-09T04:50:47.035Z,8.90
2024-05-09T04:53:16.977Z,8.60
2024-05-09T04:55:46.311Z,8.70
2024-05-09T04:58:15.000Z,8.60
2024-05-09T05:00:44.166Z,8.60
2024-05-09T05:03:14.989Z,8.60
2024-05-09T05:05:47.033Z,7.90
2024-05-09T05:08:17.847Z,7.80
2024-05-09T05:10:48.544Z,8.60
2024-05-09T05:13:21.491Z,9.70
2024-05-09T05:15:55.291Z,9.30
2024-05-09T05:18:24.727Z,9.90
2024-05-09T05:20:55.367Z,9.70
2024-05-09T05:23:24.888Z,8.70
2024-05-09T05:25:55.921Z,8.40
2024-05-09T05:28:24.353Z,7.90
2024-05-09T05:30:53.427Z,8.40
2024-05-09T05:33:23.087Z,8.30
2024-05-09T05:35:51.806Z,8.10
2024-05-09T05:38:23.744Z,8.10
2024-05-09T05:40:54.667Z,8.70
2024-05-09T05:43:23.197Z,7.00
2024-05-09T05:45:51.173Z,7.80
2024-05-09T05:48:19.850Z,6.40
2024-05-09T05:50:48.287Z,7.90
2024-05-09T05:53:17.102Z,8.30
2024-05-09T05:55:45.470Z,8.70
2024-05-09T05:58:15.052Z,6.60
2024-05-09T06:00:44.025Z,7.90
2024-05-09T06:03:13.795Z,7.10
2024-05-09T06:05:48.797Z,7.90
2024-05-09T06:08:17.827Z,5.80
2024-05-09T06:10:46.642Z,8.40
2024-05-09T06:13:15.924Z,6.30
2024-05-09T06:15:44.403Z,7.80
2024-05-09T06:18:15.248Z,6.20
2024-05-09T06:20:44.324Z,6.10
2024-05-09T06:23:14.293Z,5.30
2024-05-09T06:25:44.186Z,5.20
2024-05-09T06:28:12.644Z,7.00
2024-05-09T06:30:42.642Z,6.80
2024-05-09T06:33:14.416Z,4.70
2024-05-09T06:35:46.388Z,7.40
2024-05-09T06:38:15.041Z,5.20
2024-05-09T06:40:44.549Z,6.80
2024-05-09T06:43:15.566Z,6.50
2024-05-09T06:45:47.637Z,5.60
2024-05-09T06:48:19.756Z,5.50
2024-05-09T06:50:48.913Z,5.30
2024-05-09T06:53:20.575Z,5.70
2024-05-09T06:55:49.229Z,5.30
2024-05-09T06:58:18.019Z,5.60
2024-05-09T07:00:46.419Z,7.10
2024-05-09T07:03:18.292Z,7.80
2024-05-09T07:05:49.387Z,5.20
2024-05-09T07:08:18.888Z,6.00
2024-05-09T07:10:48.581Z,5.40
2024-05-09T07:13:17.662Z,6.80
2024-05-09T07:15:46.794Z,6.60
2024-05-09T07:18:18.206Z,6.60
2024-05-09T07:20:49.431Z,6.90
2024-05-09T07:23:19.060Z,7.40
2024-05-09T07:25:47.694Z,4.80
2024-05-09T07:28:19.781Z,5.90
2024-05-09T07:30:48.412Z,6.40
2024-05-09T07:33:18.564Z,4.80
2024-05-09T07:35:47.870Z,6.60
2024-05-09T07:38:16.440Z,5.40
2024-05-09T07:40:44.786Z,5.90
2024-05-09T07:43:14.979Z,6.30
2024-05-09T07:45:52.384Z,4.90
2024-05-09T07:52:39.073Z,5.50
2024-05-09T07:53:49.701Z,6.30
2024-05-09T07:56:23.065Z,5.30
2024-05-09T07:58:56.725Z,5.00
2024-05-09T08:01:28.502Z,4.20
2024-05-09T08:03:58.448Z,5.60
2024-05-09T08:06:27.491Z,4.80
2024-05-09T08:08:56.041Z,5.10
2024-05-09T08:11:25.239Z,4.70
2024-05-09T08:13:55.831Z,5.80
2024-05-09T08:16:25.224Z,6.80
2024-05-09T08:18:53.981Z,5.70
2024-05-09T08:21:22.226Z,5.40
2024-05-09T08:23:51.784Z,4.10
2024-05-09T08:26:21.147Z,4.40
2024-05-09T08:28:49.623Z,5.40
2024-05-09T08:31:18.728Z,4.10
2024-05-09T08:33:48.342Z,3.80
2024-05-09T08:36:17.670Z,4.70
2024-05-09T08:38:46.110Z,3.30
2024-05-09T08:41:18.245Z,4.40
2024-05-09T08:43:47.259Z,5.60
2024-05-09T08:46:18.445Z,3.40
2024-05-09T08:48:49.924Z,3.50
2024-05-09T08:51:18.964Z,3.70
2024-05-09T08:53:47.663Z,3.60
2024-05-09T08:56:17.249Z,6.20
2024-05-09T08:58:45.632Z,5.70
2024-05-09T09:01:14.540Z,5.20
2024-05-09T09:03:44.829Z,5.20
2024-05-09T09:06:16.438Z,4.40
2024-05-09T09:08:45.413Z,5.10
2024-05-09T09:11:13.695Z,5.10
2024-05-09T09:13:42.358Z,4.70
2024-05-09T09:16:11.366Z,5.90
2024-05-09T09:18:43.914Z,6.40
2024-05-09T09:21:12.506Z,4.40
2024-05-09T09:23:40.675Z,4.20
2024-05-09T09:26:08.884Z,4.60
2024-05-09T09:28:37.666Z,8.80
2024-05-09T09:31:06.091Z,5.20
2024-05-09T09:33:36.283Z,4.40
2024-05-09T09:36:07.569Z,5.90
2024-05-09T09:38:37.864Z,6.90
2024-05-09T09:41:13.331Z,4.80
2024-05-09T09:43:42.883Z,3.40
2024-05-09T09:46:14.294Z,3.00
2024-05-09T09:48:44.728Z,2.50
2024-05-09T09:51:15.133Z,4.00
2024-05-09T09:53:44.172Z,5.90
2024-05-09T09:56:15.760Z,3.80
2024-05-09T09:58:45.839Z,3.20
2024-05-09T10:01:14.377Z,4.10
2024-05-09T10:03:45.608Z,5.20
2024-05-09T10:06:15.520Z,4.40
2024-05-09T10:08:46.836Z,5.60
2024-05-09T10:11:20.583Z,4.80
2024-05-09T10:13:53.778Z,4.50
2024-05-09T10:16:25.980Z,3.90
2024-05-09T10:18:54.740Z,5.10
2024-05-09T10:21:23.380Z,2.30
2024-05-09T10:24:03.453Z,3.10
2024-05-09T10:26:39.091Z,2.70
2024-05-09T10:29:14.700Z,3.00
2024-05-09T10:31:44.318Z,2.90
2024-05-09T10:34:21.032Z,3.60
2024-05-09T10:36:56.471Z,2.50
2024-05-09T10:39:34.898Z,4.40
2024-05-09T10:42:03.950Z,3.90
2024-05-09T10:44:37.974Z,4.90
2024-05-09T10:47:06.211Z,3.20
2024-05-09T10:49:35.410Z,4.10
2024-05-09T10:52:05.155Z,4.80
2024-05-09T10:54:40.737Z,3.50
2024-05-09T10:57:08.988Z,3.60
2024-05-09T10:59:39.637Z,4.10
2024-05-09T11:02:08.366Z,5.40
2024-05-09T11:04:40.052Z,3.40
2024-05-09T11:07:12.910Z,5.20
2024-05-09T11:09:43.318Z,5.40
2024-05-09T11:12:12.197Z,4.40
2024-05-09T11:14:41.076Z,4.40
2024-05-09T11:17:10.083Z,4.30
2024-05-09T11:19:42.074Z,5.90
2024-05-09T11:22:11.739Z,4.50
2024-05-09T11:24:41.784Z,4.40
2024-05-09T11:27:10.509Z,4.10
2024-05-09T11:29:43.606Z,5.20
2024-05-09T11:32:13.836Z,5.50
2024-05-09T11:34:42.971Z,5.50
2024-05-09T11:37:13.133Z,4.90
2024-05-09T11:39:42.088Z,5.00
2024-05-09T11:42:10.419Z,6.00
2024-05-09T11:44:38.729Z,4.70
2024-05-09T11:47:08.139Z,2.70
2024-05-09T11:49:37.642Z,2.90
2024-05-09T11:52:06.422Z,4.00
2024-05-09T11:54:34.842Z,4.20
2024-05-09T11:57:03.758Z,4.20
2024-05-09T11:59:31.835Z,3.10
2024-05-09T12:02:00.423Z,4.30
2024-05-09T12:04:29.465Z,4.10
2024-05-09T12:06:58.789Z,3.90
2024-05-09T12:09:27.855Z,5.50
2024-05-09T12:11:56.620Z,4.50
2024-05-09T12:14:25.408Z,3.20
2024-05-09T12:16:53.984Z,4.40
2024-05-09T12:19:22.500Z,3.30
2024-05-09T12:21:51.170Z,3.80
2024-05-09T12:24:19.927Z,3.30
2024-05-09T12:26:48.511Z,4.30
2024-05-09T12:29:17.847Z,3.90
2024-05-09T12:31:46.511Z,3.90
2024-05-09T12:34:16.357Z,2.70
2024-05-09T12:36:45.744Z,3.90
2024-05-09T12:39:14.184Z,3.10
2024-05-09T12:41:42.667Z,3.70
2024-05-09T12:44:13.015Z,3.70
2024-05-09T12:46:41.475Z,3.60
2024-05-09T12:49:10.350Z,4.40
2024-05-09T12:51:39.095Z,3.30
2024-05-09T12:54:07.838Z,3.70
2024-05-09T12:56:37.624Z,2.90
2024-05-09T12:59:06.461Z,3.00
2024-05-09T13:01:38.399Z,5.00
2024-05-09T13:04:08.031Z,5.50
2024-05-09T13:06:36.720Z,3.20
2024-05-09T13:09:06.118Z,4.70
2024-05-09T13:11:35.333Z,5.30
2024-05-09T13:14:04.835Z,5.10
2024-05-09T13:16:33.598Z,4.80
2024-05-09T13:19:02.087Z,4.10
2024-05-09T13:21:30.813Z,3.20
2024-05-09T13:24:00.431Z,3.80
2024-05-09T13:26:29.668Z,3.30
2024-05-09T13:28:58.453Z,2.60
2024-05-09T13:31:27.875Z,3.40
2024-05-09T13:33:56.684Z,3.10
2024-05-09T13:36:25.122Z,2.30
2024-05-09T13:38:53.412Z,3.10
2024-05-09T13:41:21.699Z,3.60
2024-05-09T13:43:50.389Z,3.30
2024-05-09T13:46:19.140Z,3.50
2024-05-09T13:48:47.667Z,5.30
2024-05-09T13:51:15.916Z,3.30
2024-05-09T13:53:44.056Z,2.30
2024-05-09T13:56:12.891Z,2.90
2024-05-09T13:58:42.259Z,3.80
2024-05-09T14:01:10.502Z,5.00
2024-05-09T14:03:38.870Z,3.00
2024-05-09T14:06:11.312Z,2.80
2024-05-09T14:08:41.842Z,7.20
2024-05-09T14:11:10.075Z,4.10
2024-05-09T14:13:42.556Z,3.40
2024-05-09T14:16:13.362Z,2.50
2024-05-09T14:18:41.711Z,4.20
2024-05-09T14:21:10.101Z,2.40
2024-05-09T14:23:38.664Z,4.20
2024-05-09T14:26:07.453Z,3.60
2024-05-09T14:28:35.723Z,3.30
2024-05-09T14:31:05.440Z,3.10
2024-05-09T14:33:34.488Z,2.80
2024-05-09T14:36:02.936Z,3.30
2024-05-09T14:38:32.020Z,2.40
2024-05-09T14:41:02.659Z,3.10
2024-05-09T14:43:32.564Z,4.70
2024-05-09T14:46:01.930Z,2.80
2024-05-09T14:48:30.549Z,2.80
2024-05-09T14:50:58.967Z,3.70
2024-05-09T14:53:28.471Z,2.90
2024-05-09T14:55:57.486Z,5.00
2024-05-09T14:58:26.850Z,2.60
2024-05-09T15:00:55.283Z,3.30
2024-05-09T15:03:23.805Z,2.60
2024-05-09T15:05:53.315Z,4.00
2024-05-09T15:08:21.878Z,4.30
2024-05-09T15:10:51.022Z,2.60
2024-05-09T15:13:21.532Z,3.10
2024-05-09T15:15:50.854Z,3.50
2024-05-09T15:18:19.313Z,2.90
2024-05-09T15:20:48.570Z,3.80
2024-05-09T15:23:17.346Z,4.30
2024-05-09T15:25:47.538Z,4.80
2024-05-09T15:28:16.599Z,3.10
2024-05-09T15:30:46.867Z,3.40
2024-05-09T15:33:18.812Z,4.60
2024-05-09T15:35:48.308Z,2.00
2024-05-09T15:38:18.625Z,4.20
2024-05-09T15:40:47.274Z,2.70
2024-05-09T15:43:15.860Z,3.10
2024-05-09T15:45:45.010Z,4.30
2024-05-09T15:48:14.379Z,5.00
2024-05-09T15:50:43.553Z,2.90
2024-05-09T15:53:13.498Z,4.20
2024-05-09T15:55:43.519Z,5.10
2024-05-09T15:58:12.829Z,3.00
2024-05-09T16:00:44.803Z,3.90
2024-05-09T16:03:15.723Z,3.30
2024-05-09T16:05:48.172Z,3.50
2024-05-09T16:08:18.112Z,2.50
2024-05-09T16:10:47.724Z,3.50
2024-05-09T16:13:17.726Z,4.00
2024-05-09T16:15:46.848Z,4.20
2024-05-09T16:18:15.646Z,3.20
2024-05-09T16:20:45.450Z,2.70
2024-05-09T16:23:15.440Z,3.10
2024-05-09T16:25:46.033Z,4.10
2024-05-09T16:28:14.303Z,2.40
2024-05-09T16:30:42.871Z,3.90
2024-05-09T16:33:11.996Z,3.90
2024-05-09T16:35:41.138Z,3.50
2024-05-09T16:38:09.814Z,4.10
2024-05-09T16:40:41.252Z,3.40
2024-05-09T16:43:13.018Z,3.10
2024-05-09T16:45:45.118Z,3.20
2024-05-09T16:48:14.533Z,4.50
2024-05-09T16:50:43.059Z,4.70
2024-05-09T16:53:11.684Z,4.70
2024-05-09T16:55:40.435Z,3.00
2024-05-09T16:58:09.199Z,4.40
2024-05-09T17:00:42.206Z,3.80
2024-05-09T17:03:15.174Z,4.80
2024-05-09T17:05:46.899Z,4.40
2024-05-09T17:08:20.236Z,3.40
2024-05-09T17:10:49.635Z,4.60
2024-05-09T17:13:22.778Z,4.20
2024-05-09T17:15:51.769Z,4.10
2024-05-09T17:18:20.279Z,3.70
2024-05-09T17:20:50.329Z,3.80
2024-05-09T17:23:18.639Z,3.30
2024-05-09T17:25:47.045Z,3.90
2024-05-09T17:28:15.474Z,5.30
2024-05-09T17:30:44.104Z,2.80
2024-05-09T17:33:13.279Z,3.20
2024-05-09T17:35:46.450Z,4.40
2024-05-09T17:38:16.429Z,4.80
2024-05-09T17:40:46.902Z,3.40
2024-05-09T17:43:16.163Z,3.70
2024-05-09T17:45:45.882Z,3.50
2024-05-09T17:48:15.710Z,4.60
2024-05-09T17:50:44.699Z,4.40
2024-05-09T17:53:14.509Z,4.30
2024-05-09T17:55:43.505Z,2.90
2024-05-09T17:58:13.602Z,4.00
2024-05-09T18:00:42.823Z,4.00
2024-05-09T18:03:13.250Z,3.30
2024-05-09T18:05:44.791Z,4.00
2024-05-09T18:08:15.267Z,5.30
2024-05-09T18:10:44.792Z,4.60
2024-05-09T18:13:14.514Z,5.90
2024-05-09T18:15:45.445Z,4.20
2024-05-09T18:18:15.932Z,3.90
2024-05-09T18:20:46.364Z,5.90
2024-05-09T18:23:17.834Z,4.10
2024-05-09T18:25:48.481Z,5.20
2024-05-09T18:28:18.242Z,5.70
2024-05-09T18:30:48.226Z,5.30
2024-05-09T18:33:17.625Z,4.30
2024-05-09T18:35:47.193Z,7.10
2024-05-09T18:38:18.054Z,5.60
2024-05-09T18:40:49.385Z,4.60
2024-05-09T18:43:26.385Z,4.70
2024-05-09T18:46:00.850Z,4.40
2024-05-09T18:48:30.604Z,4.00
2024-05-09T18:50:59.521Z,5.70
2024-05-09T18:53:29.784Z,6.40
2024-05-09T18:55:59.654Z,6.90
2024-05-09T18:58:29.773Z,5.60
2024-05-09T19:01:00.974Z,5.40
2024-05-09T19:03:31.304Z,6.00
2024-05-09T19:06:01.221Z,6.30
2024-05-09T19:08:31.072Z,6.80
2024-05-09T19:11:01.372Z,5.50
2024-05-09T19:13:33.296Z,7.60
2024-05-09T19:16:05.226Z,5.70
2024-05-09T19:18:39.071Z,5.90
2024-05-09T19:21:10.698Z,8.60
2024-05-09T19:23:47.221Z,10.30
2024-05-09T19:26:28.019Z,10.50
2024-05-09T19:29:00.036Z,11.40
2024-05-09T19:31:30.722Z,7.70
2024-05-09T19:34:02.440Z,8.00
2024-05-09T19:36:32.925Z,8.50
2024-05-09T19:39:06.391Z,5.90
2024-05-09T19:41:43.685Z,7.30
2024-05-09T19:44:14.343Z,8.50
2024-05-09T19:46:44.711Z,6.80
2024-05-09T19:49:15.460Z,6.30
2024-05-09T19:51:45.389Z,8.90
2024-05-09T19:54:16.559Z,10.70
2024-05-09T19:56:45.907Z,9.20
2024-05-09T19:59:16.614Z,7.20
2024-05-09T20:01:46.823Z,6.00
2024-05-09T20:04:18.060Z,5.80
2024-05-09T20:06:47.228Z,5.70
2024-05-09T20:09:16.513Z,6.80
2024-05-09T20:11:46.131Z,6.80
2024-05-09T20:14:15.696Z,6.70
2024-05-09T20:16:46.450Z,6.30
2024-05-09T20:19:15.708Z,7.40
2024-05-09T20:21:46.317Z,6.20
2024-05-09T20:24:16.475Z,6.00
2024-05-09T20:26:45.289Z,6.00
2024-05-09T20:29:16.533Z,5.30
2024-05-09T20:31:48.148Z,6.60
2024-05-09T20:34:17.617Z,6.80
2024-05-09T20:36:46.730Z,8.30
2024-05-09T20:39:15.898Z,6.30
2024-05-09T20:41:44.792Z,7.40
2024-05-09T20:44:13.777Z,7.40
2024-05-09T20:46:42.351Z,9.40
2024-05-09T20:49:12.282Z,7.00
2024-05-09T20:51:42.384Z,8.30
2024-05-09T20:54:11.887Z,7.10
2024-05-09T20:56:40.384Z,7.20
2024-05-09T20:59:09.082Z,6.90
2024-05-09T21:01:37.854Z,7.90
2024-05-09T21:04:06.951Z,8.00
2024-05-09T21:06:35.677Z,7.60
2024-05-09T21:09:04.556Z,6.90
2024-05-09T21:11:33.048Z,6.70
2024-05-09T21:14:01.509Z,7.90
2024-05-09T21:16:34.340Z,7.40
2024-05-09T21:19:03.115Z,6.80
2024-05-09T21:21:39.259Z,8.00
2024-05-09T21:24:08.005Z,7.80
2024-05-09T21:26:37.533Z,7.30
2024-05-09T21:29:05.997Z,7.90
2024-05-09T21:31:34.539Z,8.50
2024-05-09T21:34:02.791Z,8.40
2024-05-09T21:36:31.521Z,9.30
2024-05-09T21:38:59.822Z,7.60
2024-05-09T21:41:27.898Z,8.00
2024-05-09T21:43:55.802Z,6.90
2024-05-09T21:46:25.055Z,8.90
2024-05-09T21:48:55.696Z,6.50
2024-05-09T21:51:23.968Z,10.40
2024-05-09T21:53:52.582Z,7.80
2024-05-09T21:56:20.729Z,9.40
2024-05-09T21:58:49.008Z,8.40
2024-05-09T22:01:17.631Z,7.90
2024-05-09T22:03:46.123Z,8.20
2024-05-09T22:06:14.341Z,11.20
2024-05-09T22:08:42.545Z,8.40
2024-05-09T22:11:10.568Z,7.10
2024-05-09T22:13:38.875Z,8.40
2024-05-09T22:16:07.858Z,8.10
2024-05-09T22:18:36.078Z,8.30
2024-05-09T22:21:04.417Z,8.00
2024-05-09T22:23:32.577Z,8.80
2024-05-09T22:26:00.756Z,7.80
2024-05-09T22:28:29.023Z,7.80
2024-05-09T22:30:57.536Z,6.80
2024-05-09T22:33:25.822Z,8.60
2024-05-09T22:35:53.991Z,7.70
2024-05-09T22:38:22.133Z,7.30
2024-05-09T22:40:50.301Z,9.40
2024-05-09T22:43:21.114Z,6.70
2024-05-09T22:45:51.389Z,6.70
2024-05-09T22:48:20.221Z,9.80
2024-05-09T22:50:48.536Z,7.00
2024-05-09T22:53:17.118Z,7.90
2024-05-09T22:55:45.190Z,8.00
2024-05-09T22:58:13.301Z,12.80
2024-05-09T23:00:41.494Z,8.80
2024-05-09T23:03:09.726Z,9.20
2024-05-09T23:05:37.911Z,11.30
2024-05-09T23:08:06.689Z,10.30
2024-05-09T23:10:37.614Z,9.70
2024-05-09T23:13:07.574Z,13.10
2024-05-09T23:15:38.340Z,10.10
2024-05-09T23:18:07.453Z,9.40
2024-05-09T23:20:38.995Z,8.70
2024-05-09T23:23:10.550Z,10.90
2024-05-09T23:25:44.007Z,9.40
2024-05-09T23:28:12.482Z,8.30
2024-05-09T23:30:41.746Z,12.80
2024-05-09T23:33:12.904Z,8.40
2024-05-09T23:35:44.412Z,8.80
2024-05-09T23:38:13.500Z,8.40
2024-05-09T23:40:42.817Z,9.70
2024-05-09T23:43:13.129Z,9.30
2024-05-09T23:45:42.583Z,9.20
2024-05-09T23:48:11.535Z,10.30
2024-05-09T23:50:40.740Z,8.10
2024-05-09T23:53:10.625Z,7.00
2024-05-09T23:55:39.289Z,8.50
2024-05-09T23:58:09.055Z,8.90
